Time,TemperatureF,DewpointF,PressureIn,WindDirection,WindDirectionDegrees,WindSpeedMPH,WindSpeedGustMPH,Humidity,HourlyPrecipIn,Conditions,Clouds,dailyrainin,SoftwareType,DateUTC
2013-08-10 00:01:00,72.1,66.7,30.04,WSW,245,2.2,2.5,83,0.00,RA,,0.00,WeatherDisplay:10.37,2013-08-10 04:01:00,
2013-08-10 00:02:00,72.1,66.7,30.04,WSW,245,2.5,2.5,83,0.00,RA,,0.00,WeatherDisplay:10.37,2013-08-10 04:02:00,
2013-08-10 00:07:00,72.1,66.7,30.04,SW,222,0.3,2.3,83,0.00,RA,,0.00,WeatherDisplay:10.37,2013-08-10 04:07:00,
2013-08-10 00:12:00,72.1,66.7,30.04,SW,222,1.4,3.5,83,0.00,-RA,,0.00,WeatherDisplay:10.37,2013-08-10 04:12:00,
2013-08-10 00:17:00,72.1,66.7,30.04,WSW,245,0.0,0.0,83,0.00,-RA,,0.00,WeatherDisplay:10.37,2013-08-10 04:17:00,
2013-08-10 00:22:00,72.0,66.5,30.04,WSW,245,0.0,0.0,83,0.00,-RA,,0.00,WeatherDisplay:10.37,2013-08-10 04:22:00,
2013-08-10 00:27:00,72.0,66.5,30.04,SSW,199,0.0,0.0,83,0.00,-RA,,0.00,WeatherDisplay:10.37,2013-08-10 04:27:00,
2013-08-10 00:32:00,72.0,66.5,30.03,SSW,199,4.5,4.6,83,0.00,-RA,,0.00,WeatherDisplay:10.37,2013-08-10 04:32:00,
2013-08-10 00:37:00,72.0,66.5,30.04,WSW,245,3.5,3.5,83,0.00,-RA,,0.00,WeatherDisplay:10.37,2013-08-10 04:37:00,
2013-08-10 00:42:00,72.0,66.9,30.05,WSW,245,4.5,4.6,84,0.00,-RA,,0.00,WeatherDisplay:10.37,2013-08-10 04:42:00,
2013-08-10 00:47:00,72.0,66.5,30.05,SSW,199,2.7,2.7,83,0.00,-RA,,0.00,WeatherDisplay:10.37,2013-08-10 04:47:00,
2013-08-10 00:52:00,72.0,66.5,30.05,South,177,4.4,4.6,83,0.00,-RA,,0.00,WeatherDisplay:10.37,2013-08-10 04:52:00,
2013-08-10 00:57:00,72.1,67.0,30.05,WSW,245,2.2,3.5,84,0.00,-RA,,0.00,WeatherDisplay:10.37,2013-08-10 04:57:00,
2013-08-10 01:02:00,72.0,66.9,30.05,South,177,3.1,3.5,84,0.00,-RA,,0.00,WeatherDisplay:10.37,2013-08-10 05:02:00,
2013-08-10 01:07:00,72.1,67.0,30.04,SW,222,2.3,3.5,84,0.00,-RA,,0.00,WeatherDisplay:10.37,2013-08-10 05:07:00,
2013-08-10 01:12:00,72.0,66.9,30.04,SSW,199,1.1,1.1,84,0.00,BKN,,0.00,WeatherDisplay:10.37,2013-08-10 05:12:00,
2013-08-10 01:17:00,72.0,66.9,30.04,SSW,199,0.7,1.1,84,0.00,BKN,,0.00,WeatherDisplay:10.37,2013-08-10 05:17:00,
2013-08-10 01:22:00,72.0,66.9,30.04,SSW,199,2.2,2.3,84,0.00,BKN,,0.00,WeatherDisplay:10.37,2013-08-10 05:22:00,
2013-08-10 01:27:00,72.0,66.9,30.04,WSW,245,3.8,3.8,84,0.00,BKN,,0.00,WeatherDisplay:10.37,2013-08-10 05:27:00,
2013-08-10 01:32:00,72.0,66.9,30.04,SW,222,2.9,3.5,84,0.00,BKN,,0.00,WeatherDisplay:10.37,2013-08-10 05:32:00,
2013-08-10 01:37:00,72.0,66.9,30.04,WSW,245,0.0,2.3,84,0.00,BKN,,0.00,WeatherDisplay:10.37,2013-08-10 05:37:00,
2013-08-10 01:42:00,72.0,66.9,30.04,WSW,245,0.0,0.0,84,0.00,BKN,,0.00,WeatherDisplay:10.37,2013-08-10 05:42:00,
2013-08-10 01:47:00,72.0,66.9,30.04,WSW,245,0.0,3.5,84,0.00,BKN,,0.00,WeatherDisplay:10.37,2013-08-10 05:47:00,
2013-08-10 01:52:00,72.0,66.9,30.04,WSW,245,0.0,2.3,84,0.00,BKN,,0.00,WeatherDisplay:10.37,2013-08-10 05:52:00,
2013-08-10 01:57:00,71.8,67.0,30.04,WSW,245,1.1,1.1,85,0.00,BKN,,0.00,WeatherDisplay:10.37,2013-08-10 05:57:00,
2013-08-10 02:02:00,71.8,67.0,30.03,WSW,245,0.0,0.0,85,0.00,BKN,,0.00,WeatherDisplay:10.37,2013-08-10 06:02:00,
2013-08-10 02:07:00,71.8,67.0,30.03,SW,222,1.4,3.5,85,0.00,BKN,,0.00,WeatherDisplay:10.37,2013-08-10 06:07:00,
2013-08-10 02:12:00,71.8,67.0,30.03,WSW,245,0.0,0.0,85,0.00,OVC,,0.00,WeatherDisplay:10.37,2013-08-10 06:12:00,
2013-08-10 02:17:00,71.6,66.8,30.03,SW,222,0.0,0.0,85,0.00,OVC,,0.00,WeatherDisplay:10.37,2013-08-10 06:17:00,
2013-08-10 02:22:00,71.6,66.8,30.03,SW,222,0.0,0.0,85,0.00,OVC,,0.00,WeatherDisplay:10.37,2013-08-10 06:22:00,
2013-08-10 02:27:00,71.6,66.8,30.03,SSW,199,0.0,0.0,85,0.00,OVC,,0.00,WeatherDisplay:10.37,2013-08-10 06:27:00,
2013-08-10 02:32:00,71.6,66.8,30.03,SSW,199,0.0,0.0,85,0.00,OVC,,0.00,WeatherDisplay:10.37,2013-08-10 06:32:00,
2013-08-10 02:37:00,71.4,66.7,30.02,SW,222,0.0,0.0,85,0.00,OVC,,0.00,WeatherDisplay:10.37,2013-08-10 06:37:00,
2013-08-10 02:42:00,71.4,66.7,30.02,SSW,199,0.0,0.0,85,0.00,OVC,,0.00,WeatherDisplay:10.37,2013-08-10 06:42:00,
2013-08-10 02:47:00,71.4,66.7,30.03,SSW,199,0.0,0.0,85,0.00,OVC,,0.00,WeatherDisplay:10.37,2013-08-10 06:47:00,
2013-08-10 02:52:00,71.2,66.5,30.03,SW,222,0.0,0.0,85,0.00,OVC,,0.00,WeatherDisplay:10.37,2013-08-10 06:52:00,
2013-08-10 02:57:00,71.2,66.5,30.03,WSW,245,0.3,1.1,85,0.00,OVC,,0.00,WeatherDisplay:10.37,2013-08-10 06:57:00,
2013-08-10 03:02:00,71.2,66.2,30.03,SSW,199,0.0,0.0,84,0.00,OVC,,0.00,WeatherDisplay:10.37,2013-08-10 07:02:00,
2013-08-10 03:07:00,71.2,66.2,30.03,SSW,199,0.1,1.1,84,0.00,OVC,,0.00,WeatherDisplay:10.37,2013-08-10 07:07:00,
2013-08-10 03:12:00,71.2,66.2,30.03,South,177,1.3,1.3,84,0.00,OVC,,0.00,WeatherDisplay:10.37,2013-08-10 07:12:00,
2013-08-10 03:17:00,71.2,66.2,30.03,South,177,0.0,0.0,84,0.00,OVC,,0.00,WeatherDisplay:10.37,2013-08-10 07:17:00,
2013-08-10 03:22:00,71.2,66.5,30.03,SW,222,0.0,0.0,85,0.00,OVC,,0.00,WeatherDisplay:10.37,2013-08-10 07:22:00,
2013-08-10 03:27:00,71.2,66.5,30.03,SW,222,0.0,0.0,85,0.00,OVC,,0.00,WeatherDisplay:10.37,2013-08-10 07:27:00,
2013-08-10 03:32:00,71.2,66.2,30.03,SSW,199,0.0,0.0,84,0.00,OVC,,0.00,WeatherDisplay:10.37,2013-08-10 07:32:00,
2013-08-10 03:37:00,71.2,66.2,30.03,South,177,0.0,0.0,84,0.00,OVC,,0.00,WeatherDisplay:10.37,2013-08-10 07:37:00,
2013-08-10 03:42:00,70.9,65.8,30.03,South,177,0.0,0.0,84,0.00,OVC,,0.00,WeatherDisplay:10.37,2013-08-10 07:42:00,
2013-08-10 03:47:00,70.9,65.8,30.03,South,177,0.0,0.0,84,0.00,OVC,,0.00,WeatherDisplay:10.37,2013-08-10 07:47:00,
2013-08-10 03:52:00,70.9,65.8,30.03,WSW,245,0.0,0.0,84,0.00,OVC,,0.00,WeatherDisplay:10.37,2013-08-10 07:52:00,
2013-08-10 03:57:00,70.9,65.8,30.03,SW,222,0.0,0.0,84,0.00,OVC,,0.00,WeatherDisplay:10.37,2013-08-10 07:57:00,
2013-08-10 04:02:00,70.7,65.6,30.03,SW,222,1.3,1.3,84,0.00,OVC,,0.00,WeatherDisplay:10.37,2013-08-10 08:02:00,
2013-08-10 04:07:00,70.7,65.6,30.04,WSW,245,0.0,0.0,84,0.00,OVC,,0.00,WeatherDisplay:10.37,2013-08-10 08:07:00,
2013-08-10 04:12:00,70.7,66.0,30.04,WSW,245,0.0,0.0,85,0.00,CLR,,0.00,WeatherDisplay:10.37,2013-08-10 08:12:00,
2013-08-10 04:17:00,70.5,65.8,30.04,WSW,245,0.0,0.0,85,0.00,CLR,,0.00,WeatherDisplay:10.37,2013-08-10 08:17:00,
2013-08-10 04:22:00,70.5,65.8,30.04,SW,222,0.0,0.0,85,0.00,CLR,,0.00,WeatherDisplay:10.37,2013-08-10 08:22:00,
2013-08-10 04:27:00,70.5,65.8,30.04,SW,222,0.0,0.0,85,0.00,CLR,,0.00,WeatherDisplay:10.37,2013-08-10 08:27:00,
2013-08-10 04:32:00,70.3,65.6,30.04,SW,222,0.0,0.0,85,0.00,CLR,,0.00,WeatherDisplay:10.37,2013-08-10 08:32:00,
2013-08-10 04:37:00,70.3,65.6,30.04,WSW,245,0.0,0.0,85,0.00,CLR,,0.00,WeatherDisplay:10.37,2013-08-10 08:37:00,
2013-08-10 04:42:00,70.3,66.0,30.04,SSW,199,0.0,0.0,86,0.00,CLR,,0.00,WeatherDisplay:10.37,2013-08-10 08:42:00,
2013-08-10 04:47:00,70.3,65.6,30.04,SW,222,0.0,0.0,85,0.00,CLR,,0.00,WeatherDisplay:10.37,2013-08-10 08:47:00,
2013-08-10 04:52:00,70.3,65.6,30.04,SSW,199,0.0,0.0,85,0.00,CLR,,0.00,WeatherDisplay:10.37,2013-08-10 08:52:00,
2013-08-10 04:57:00,70.2,65.1,30.04,SSW,199,0.0,0.0,84,0.00,CLR,,0.00,WeatherDisplay:10.37,2013-08-10 08:57:00,
2013-08-10 05:02:00,70.2,65.1,30.04,WSW,245,0.0,0.0,84,0.00,CLR,,0.00,WeatherDisplay:10.37,2013-08-10 09:02:00,
2013-08-10 05:07:00,70.2,65.4,30.04,WSW,245,0.0,0.0,85,0.00,CLR,,0.00,WeatherDisplay:10.37,2013-08-10 09:07:00,
2013-08-10 05:12:00,70.0,65.3,30.04,WSW,245,0.0,0.0,85,0.00,CLR,,0.00,WeatherDisplay:10.37,2013-08-10 09:12:00,
2013-08-10 05:17:00,70.0,65.3,30.03,SSW,199,0.0,0.0,85,0.00,CLR,,0.00,WeatherDisplay:10.37,2013-08-10 09:17:00,
2013-08-10 05:22:00,70.0,65.3,30.03,South,177,0.0,0.0,85,0.00,CLR,,0.00,WeatherDisplay:10.37,2013-08-10 09:22:00,
2013-08-10 05:27:00,70.0,65.3,30.03,SSW,199,0.0,0.0,85,0.00,CLR,,0.00,WeatherDisplay:10.37,2013-08-10 09:27:00,
2013-08-10 05:32:00,70.0,65.3,30.04,SW,222,0.3,0.9,85,0.00,CLR,,0.00,WeatherDisplay:10.37,2013-08-10 09:32:00,
2013-08-10 05:37:00,70.0,65.3,30.04,South,177,0.0,0.0,85,0.00,CLR,,0.00,WeatherDisplay:10.37,2013-08-10 09:37:00,
2013-08-10 05:42:00,70.0,65.3,30.04,SW,222,0.0,0.0,85,0.00,CLR,,0.00,WeatherDisplay:10.37,2013-08-10 09:42:00,
2013-08-10 05:47:00,70.0,65.3,30.04,West,267,0.0,0.0,85,0.00,CLR,,0.00,WeatherDisplay:10.37,2013-08-10 09:47:00,
2013-08-10 05:52:00,70.2,65.4,30.04,WSW,245,0.0,0.0,85,0.00,CLR,,0.00,WeatherDisplay:10.37,2013-08-10 09:52:00,
2013-08-10 05:57:00,70.2,65.4,30.04,West,267,0.7,1.1,85,0.00,CLR,,0.00,WeatherDisplay:10.37,2013-08-10 09:57:00,
2013-08-10 06:02:00,70.3,66.0,30.04,WSW,245,0.0,0.0,86,0.00,CLR,,0.00,WeatherDisplay:10.37,2013-08-10 10:02:00,
2013-08-10 06:07:00,70.3,66.0,30.04,West,267,0.0,0.0,86,0.00,CLR,,0.00,WeatherDisplay:10.37,2013-08-10 10:07:00,
2013-08-10 06:12:00,70.3,66.0,30.04,WSW,245,0.0,0.0,86,0.00,CLR,,0.00,WeatherDisplay:10.37,2013-08-10 10:12:00,
2013-08-10 06:17:00,70.3,66.0,30.04,West,267,0.6,1.1,86,0.00,CLR,,0.00,WeatherDisplay:10.37,2013-08-10 10:17:00,
2013-08-10 06:22:00,70.5,66.5,30.04,WNW,289,0.0,0.0,87,0.00,CLR,,0.00,WeatherDisplay:10.37,2013-08-10 10:22:00,
2013-08-10 06:27:00,70.7,66.6,30.04,West,267,0.0,0.0,87,0.00,CLR,,0.00,WeatherDisplay:10.37,2013-08-10 10:27:00,
2013-08-10 06:32:00,70.7,67.0,30.04,West,267,0.0,0.0,88,0.00,CLR,,0.00,WeatherDisplay:10.37,2013-08-10 10:32:00,
2013-08-10 06:37:00,70.7,67.0,30.04,West,267,0.0,0.0,88,0.00,CLR,,0.00,WeatherDisplay:10.37,2013-08-10 10:37:00,
2013-08-10 06:42:00,70.7,67.0,30.04,West,267,0.0,0.0,88,0.00,CLR,,0.00,WeatherDisplay:10.37,2013-08-10 10:42:00,
2013-08-10 06:47:00,70.7,67.0,30.04,WSW,245,0.0,0.0,88,0.00,CLR,,0.00,WeatherDisplay:10.37,2013-08-10 10:47:00,
2013-08-10 06:52:00,70.5,66.8,30.04,South,177,0.0,0.0,88,0.00,CLR,,0.00,WeatherDisplay:10.37,2013-08-10 10:52:00,
2013-08-10 06:57:00,70.3,66.6,30.04,SSE,155,0.0,0.0,88,0.00,CLR,,0.00,WeatherDisplay:10.37,2013-08-10 10:57:00,
2013-08-10 07:02:00,70.3,66.6,30.05,South,177,0.0,0.0,88,0.00,CLR,,0.00,WeatherDisplay:10.37,2013-08-10 11:02:00,
2013-08-10 07:07:00,70.3,66.6,30.05,South,177,0.0,0.0,88,0.00,CLR,,0.00,WeatherDisplay:10.37,2013-08-10 11:07:00,
2013-08-10 07:12:00,70.3,66.3,30.05,SW,222,0.0,0.0,87,0.00,OVC,,0.00,WeatherDisplay:10.37,2013-08-10 11:12:00,
2013-08-10 07:17:00,70.3,66.3,30.05,WSW,245,0.0,0.0,87,0.00,OVC,,0.00,WeatherDisplay:10.37,2013-08-10 11:17:00,
2013-08-10 07:22:00,70.3,66.3,30.06,WSW,245,0.0,0.0,87,0.00,OVC,,0.00,WeatherDisplay:10.37,2013-08-10 11:22:00,
2013-08-10 07:27:00,70.5,66.5,30.06,WSW,245,0.0,0.0,87,0.00,OVC,,0.00,WeatherDisplay:10.37,2013-08-10 11:27:00,
2013-08-10 07:32:00,70.9,66.8,30.06,West,267,0.0,0.0,87,0.00,OVC,,0.00,WeatherDisplay:10.37,2013-08-10 11:32:00,
2013-08-10 07:37:00,70.9,66.8,30.06,West,267,0.0,0.0,87,0.00,OVC,,0.00,WeatherDisplay:10.37,2013-08-10 11:37:00,
2013-08-10 07:42:00,71.2,67.5,30.06,West,267,0.0,0.0,88,0.00,OVC,,0.00,WeatherDisplay:10.37,2013-08-10 11:42:00,
2013-08-10 07:47:00,71.4,67.7,30.06,West,267,0.0,0.0,88,0.00,OVC,,0.00,WeatherDisplay:10.37,2013-08-10 11:47:00,
2013-08-10 07:52:00,71.4,67.7,30.06,West,267,0.0,0.0,88,0.00,OVC,,0.00,WeatherDisplay:10.37,2013-08-10 11:52:00,
2013-08-10 07:57:00,71.8,68.0,30.06,SSW,199,0.0,0.0,88,0.00,OVC,,0.00,WeatherDisplay:10.37,2013-08-10 11:57:00,
2013-08-10 08:02:00,72.1,68.4,30.06,WSW,245,0.0,0.0,88,0.00,OVC,,0.00,WeatherDisplay:10.37,2013-08-10 12:02:00,
2013-08-10 08:07:00,72.3,68.6,30.06,SW,222,0.9,1.1,88,0.00,OVC,,0.00,WeatherDisplay:10.37,2013-08-10 12:07:00,
2013-08-10 08:12:00,72.5,68.7,30.06,West,267,0.0,0.0,88,0.00,OVC,,0.00,WeatherDisplay:10.37,2013-08-10 12:12:00,
2013-08-10 08:17:00,72.7,68.9,30.06,WSW,245,0.0,0.0,88,0.00,OVC,,0.00,WeatherDisplay:10.37,2013-08-10 12:17:00,
2013-08-10 08:22:00,73.0,69.3,30.06,West,267,0.0,0.0,88,0.00,OVC,,0.00,WeatherDisplay:10.37,2013-08-10 12:22:00,
2013-08-10 08:27:00,73.2,69.5,30.06,SSW,199,0.0,0.0,88,0.00,OVC,,0.00,WeatherDisplay:10.37,2013-08-10 12:27:00,
2013-08-10 08:32:00,73.4,69.3,30.07,WSW,245,0.0,0.0,87,0.00,OVC,,0.00,WeatherDisplay:10.37,2013-08-10 12:32:00,
2013-08-10 08:37:00,73.4,69.3,30.06,SSW,199,0.2,1.1,87,0.00,OVC,,0.00,WeatherDisplay:10.37,2013-08-10 12:37:00,
2013-08-10 08:42:00,73.6,69.5,30.07,SSW,199,0.0,0.0,87,0.00,OVC,,0.00,WeatherDisplay:10.37,2013-08-10 12:42:00,
2013-08-10 08:47:00,73.9,69.5,30.06,WSW,245,1.1,1.1,86,0.00,OVC,,0.00,WeatherDisplay:10.37,2013-08-10 12:47:00,
2013-08-10 08:52:00,74.3,69.8,30.06,WSW,245,1.3,2.3,86,0.00,OVC,,0.00,WeatherDisplay:10.37,2013-08-10 12:52:00,
2013-08-10 08:57:00,74.8,70.4,30.06,SW,222,0.0,0.0,86,0.00,OVC,,0.00,WeatherDisplay:10.37,2013-08-10 12:57:00,
2013-08-10 09:02:00,75.7,71.3,30.06,WSW,245,0.0,0.0,86,0.00,OVC,,0.00,WeatherDisplay:10.37,2013-08-10 13:02:00,
2013-08-10 09:07:00,76.6,71.8,30.06,WSW,245,0.0,0.0,85,0.00,OVC,,0.00,WeatherDisplay:10.37,2013-08-10 13:07:00,
2013-08-10 09:12:00,77.0,72.1,30.06,West,267,0.0,0.0,85,0.00,OVC,,0.00,WeatherDisplay:10.37,2013-08-10 13:12:00,
2013-08-10 09:17:00,77.4,71.8,30.07,WSW,245,0.0,0.0,83,0.00,OVC,,0.00,WeatherDisplay:10.37,2013-08-10 13:17:00,
2013-08-10 09:22:00,77.4,71.8,30.07,WSW,245,0.0,0.0,83,0.00,OVC,,0.00,WeatherDisplay:10.37,2013-08-10 13:22:00,
2013-08-10 09:27:00,77.5,71.6,30.07,WSW,245,0.0,0.0,82,0.00,OVC,,0.00,WeatherDisplay:10.37,2013-08-10 13:27:00,
2013-08-10 09:32:00,77.7,71.8,30.08,WSW,245,0.0,0.0,82,0.00,OVC,,0.00,WeatherDisplay:10.37,2013-08-10 13:32:00,
2013-08-10 09:37:00,77.9,72.0,30.08,South,177,0.0,0.0,82,0.00,OVC,,0.00,WeatherDisplay:10.37,2013-08-10 13:37:00,
2013-08-10 09:42:00,78.4,72.5,30.08,WSW,245,0.0,0.0,82,0.00,OVC,,0.00,WeatherDisplay:10.37,2013-08-10 13:42:00,
2013-08-10 09:47:00,79.0,72.6,30.08,WSW,245,0.8,2.7,81,0.00,OVC,,0.00,WeatherDisplay:10.37,2013-08-10 13:47:00,
2013-08-10 09:52:00,79.0,72.6,30.08,WSW,245,0.1,2.3,81,0.00,OVC,,0.00,WeatherDisplay:10.37,2013-08-10 13:52:00,
2013-08-10 09:57:00,79.0,72.3,30.08,WSW,245,0.0,0.0,80,0.00,OVC,,0.00,WeatherDisplay:10.37,2013-08-10 13:57:00,
2013-08-10 10:02:00,79.0,71.9,30.08,WNW,289,0.0,0.0,79,0.00,OVC,,0.00,WeatherDisplay:10.37,2013-08-10 14:02:00,
2013-08-10 10:07:00,78.8,71.7,30.08,West,267,0.0,0.0,79,0.00,OVC,,0.00,WeatherDisplay:10.37,2013-08-10 14:07:00,
2013-08-10 10:12:00,78.6,71.2,30.08,NW,312,0.0,0.0,78,0.00,OVC,,0.00,WeatherDisplay:10.37,2013-08-10 14:12:00,
2013-08-10 10:17:00,78.6,71.6,30.08,WSW,245,0.0,0.0,79,0.00,OVC,,0.00,WeatherDisplay:10.37,2013-08-10 14:17:00,
2013-08-10 10:22:00,78.6,71.9,30.08,SW,222,0.0,0.0,80,0.00,OVC,,0.00,WeatherDisplay:10.37,2013-08-10 14:22:00,
2013-08-10 10:27:00,78.6,71.6,30.08,SSE,155,0.0,0.0,79,0.00,OVC,,0.00,WeatherDisplay:10.37,2013-08-10 14:27:00,
2013-08-10 10:32:00,78.6,71.6,30.08,SSE,155,0.0,0.0,79,0.00,OVC,,0.00,WeatherDisplay:10.37,2013-08-10 14:32:00,
2013-08-10 10:37:00,79.0,71.9,30.08,SSE,155,0.0,0.0,79,0.00,OVC,,0.00,WeatherDisplay:10.37,2013-08-10 14:37:00,
2013-08-10 10:42:00,79.3,72.6,30.08,South,177,1.1,1.1,80,0.00,OVC,,0.00,WeatherDisplay:10.37,2013-08-10 14:42:00,
2013-08-10 10:47:00,79.7,72.6,30.09,WSW,245,0.0,0.0,79,0.00,OVC,,0.00,WeatherDisplay:10.37,2013-08-10 14:47:00,
2013-08-10 10:52:00,79.7,72.6,30.09,WSW,245,2.8,3.5,79,0.00,OVC,,0.00,WeatherDisplay:10.37,2013-08-10 14:52:00,
2013-08-10 10:57:00,79.5,72.4,30.10,SW,222,0.0,0.0,79,0.00,OVC,,0.00,WeatherDisplay:10.37,2013-08-10 14:57:00,
2013-08-10 11:02:00,79.2,72.1,30.10,WSW,245,0.0,0.0,79,0.00,OVC,,0.00,WeatherDisplay:10.37,2013-08-10 15:02:00,
2013-08-10 11:07:00,78.6,71.6,30.10,SSW,199,1.0,1.3,79,0.00,OVC,,0.00,WeatherDisplay:10.37,2013-08-10 15:07:00,
2013-08-10 11:12:00,78.6,71.6,30.10,West,267,0.0,0.0,79,0.00,-RA,,0.00,WeatherDisplay:10.37,2013-08-10 15:12:00,
2013-08-10 11:17:00,77.9,71.2,30.10,West,267,0.0,0.0,80,0.00,-RA,,0.04,WeatherDisplay:10.37,2013-08-10 15:17:00,
2013-08-10 11:22:00,77.4,71.1,30.11,West,267,0.0,0.0,81,0.12,-RA,,0.12,WeatherDisplay:10.37,2013-08-10 15:22:00,
2013-08-10 11:27:00,77.0,70.7,30.10,WNW,289,0.0,0.0,81,0.24,-RA,,0.24,WeatherDisplay:10.37,2013-08-10 15:27:00,
2013-08-10 11:32:00,76.3,70.4,30.11,NW,312,1.4,2.3,82,0.43,-RA,,0.51,WeatherDisplay:10.37,2013-08-10 15:32:00,
2013-08-10 11:37:00,75.9,70.4,30.09,NNW,335,0.0,1.1,83,0.57,-RA,,0.57,WeatherDisplay:10.37,2013-08-10 15:37:00,
2013-08-10 11:42:00,75.7,70.6,30.10,North,357,0.0,0.0,84,0.61,-RA,,0.65,WeatherDisplay:10.37,2013-08-10 15:42:00,
2013-08-10 11:47:00,75.7,70.6,30.09,NNW,335,1.6,2.7,84,0.65,-RA,,0.65,WeatherDisplay:10.37,2013-08-10 15:47:00,
2013-08-10 11:52:00,75.6,70.4,30.09,North,357,1.6,2.3,84,0.69,-RA,,0.69,WeatherDisplay:10.37,2013-08-10 15:52:00,
2013-08-10 11:57:00,75.7,70.6,30.10,WNW,289,0.0,0.0,84,0.69,-RA,,0.69,WeatherDisplay:10.37,2013-08-10 15:57:00,
2013-08-10 12:02:00,75.7,70.6,30.10,NNW,335,0.0,0.0,84,0.73,-RA,,0.73,WeatherDisplay:10.37,2013-08-10 16:02:00,
2013-08-10 12:07:00,75.7,70.6,30.09,NNW,335,0.0,0.0,84,0.73,-RA,,0.73,WeatherDisplay:10.37,2013-08-10 16:07:00,
2013-08-10 12:12:00,75.9,70.7,30.10,West,267,0.0,0.0,84,0.77,RA,,0.77,WeatherDisplay:10.37,2013-08-10 16:12:00,
2013-08-10 12:17:00,76.3,71.1,30.09,South,177,0.0,0.0,84,0.77,RA,,0.77,WeatherDisplay:10.37,2013-08-10 16:17:00,
2013-08-10 12:22:00,76.8,71.6,30.09,South,177,0.0,0.0,84,0.65,FEW,,0.77,WeatherDisplay:10.37,2013-08-10 16:22:00,
2013-08-10 12:27:00,77.2,72.0,30.09,WNW,289,0.0,0.0,84,0.53,FEW,,0.77,WeatherDisplay:10.37,2013-08-10 16:27:00,
2013-08-10 12:32:00,77.5,72.0,30.09,WNW,289,0.0,0.0,83,0.35,FEW,,0.77,WeatherDisplay:10.37,2013-08-10 16:32:00,
2013-08-10 12:37:00,77.7,71.8,30.09,West,267,0.0,0.0,82,0.20,FEW,,0.77,WeatherDisplay:10.37,2013-08-10 16:37:00,
2013-08-10 12:42:00,77.7,71.4,30.09,NNW,335,0.0,1.6,81,0.16,FEW,,0.77,WeatherDisplay:10.37,2013-08-10 16:42:00,
2013-08-10 12:47:00,77.9,71.6,30.09,NW,312,1.4,2.3,81,0.12,FEW,,0.77,WeatherDisplay:10.37,2013-08-10 16:47:00,
2013-08-10 12:52:00,77.9,71.6,30.09,West,267,1.3,1.3,81,0.08,FEW,,0.77,WeatherDisplay:10.37,2013-08-10 16:52:00,
2013-08-10 12:57:00,78.1,71.8,30.09,WNW,289,1.6,1.6,81,0.08,FEW,,0.77,WeatherDisplay:10.37,2013-08-10 16:57:00,
2013-08-10 13:02:00,79.0,72.6,30.09,West,267,0.0,0.0,81,0.04,FEW,,0.77,WeatherDisplay:10.37,2013-08-10 17:02:00,
2013-08-10 13:07:00,80.4,74.1,30.09,WSW,245,0.0,0.0,81,0.04,FEW,,0.77,WeatherDisplay:10.37,2013-08-10 17:07:00,
2013-08-10 13:12:00,81.3,74.6,30.08,WSW,245,0.0,0.0,80,0.00,OVC,,0.77,WeatherDisplay:10.37,2013-08-10 17:12:00,
2013-08-10 13:17:00,81.3,74.6,30.09,WSW,245,0.0,0.0,80,0.00,OVC,,0.77,WeatherDisplay:10.37,2013-08-10 17:17:00,
2013-08-10 13:22:00,81.3,74.6,30.08,WSW,245,0.0,0.0,80,0.00,OVC,,0.77,WeatherDisplay:10.37,2013-08-10 17:22:00,
2013-08-10 13:27:00,81.3,74.6,30.08,WSW,245,0.0,0.0,80,0.00,OVC,,0.77,WeatherDisplay:10.37,2013-08-10 17:27:00,
2013-08-10 13:32:00,81.3,74.6,30.09,WSW,246,0.0,0.0,80,0.00,OVC,,0.77,WeatherDisplay:10.37,2013-08-10 17:32:00,
2013-08-10 13:37:00,81.3,74.6,30.08,WSW,246,0.0,0.0,80,0.00,OVC,,0.77,WeatherDisplay:10.37,2013-08-10 17:37:00,
2013-08-10 13:42:00,81.3,74.6,30.08,WSW,246,0.0,0.0,80,0.00,OVC,,0.77,WeatherDisplay:10.37,2013-08-10 17:42:00,
2013-08-10 13:47:00,81.3,74.6,30.09,WSW,246,0.0,0.0,80,0.00,OVC,,0.77,WeatherDisplay:10.37,2013-08-10 17:47:00,
2013-08-10 13:52:00,81.3,74.6,30.08,WSW,246,0.0,0.0,80,0.00,OVC,,0.77,WeatherDisplay:10.37,2013-08-10 17:52:00,
2013-08-10 13:57:00,81.3,74.6,30.08,WSW,246,0.0,0.0,80,0.00,OVC,,0.77,WeatherDisplay:10.37,2013-08-10 17:57:00,
2013-08-10 14:02:00,84.4,72.7,30.08,West,267,0.9,1.1,68,0.00,OVC,,0.77,WeatherDisplay:10.37,2013-08-10 18:02:00,
2013-08-10 14:07:00,84.4,72.7,30.08,West,267,0.9,1.1,68,0.00,OVC,,0.77,WeatherDisplay:10.37,2013-08-10 18:07:00,
2013-08-10 14:12:00,84.4,72.7,30.08,West,267,0.9,1.1,68,0.00,OVC,,0.77,WeatherDisplay:10.37,2013-08-10 18:12:00,
2013-08-10 14:17:00,84.4,72.7,30.08,West,268,0.9,1.1,68,0.00,OVC,,0.77,WeatherDisplay:10.37,2013-08-10 18:17:00,
2013-08-10 14:22:00,84.4,72.7,30.08,West,268,0.9,1.1,68,0.00,OVC,,0.77,WeatherDisplay:10.37,2013-08-10 18:22:00,
2013-08-10 14:27:00,83.3,71.6,30.08,WNW,289,0.0,0.0,68,0.00,OVC,,0.77,WeatherDisplay:10.37,2013-08-10 18:27:00,
2013-08-10 14:32:00,83.8,72.1,30.08,East,87,0.0,0.0,68,0.00,OVC,,0.77,WeatherDisplay:10.37,2013-08-10 18:32:00,
2013-08-10 14:37:00,84.6,72.8,30.07,South,177,0.0,0.0,68,0.00,OVC,,0.77,WeatherDisplay:10.37,2013-08-10 18:37:00,
2013-08-10 14:42:00,86.4,75.0,30.07,South,177,2.9,3.5,69,0.00,OVC,,0.77,WeatherDisplay:10.37,2013-08-10 18:42:00,
2013-08-10 14:47:00,87.1,74.3,30.07,SE,132,1.5,2.3,66,0.00,OVC,,0.77,WeatherDisplay:10.37,2013-08-10 18:47:00,
2013-08-10 14:52:00,87.8,74.6,30.07,SSW,199,2.2,2.3,65,0.00,OVC,,0.77,WeatherDisplay:10.37,2013-08-10 18:52:00,
2013-08-10 14:57:00,88.2,74.4,30.07,SW,222,0.0,0.0,64,0.00,OVC,,0.77,WeatherDisplay:10.37,2013-08-10 18:57:00,
2013-08-10 15:03:00,88.3,73.7,30.07,WSW,245,2.0,2.3,62,0.00,OVC,,0.77,WeatherDisplay:10.37,2013-08-10 19:03:00,
2013-08-10 15:08:00,88.3,74.1,30.07,SSE,155,3.4,3.5,63,0.00,BKN,,0.77,WeatherDisplay:10.37,2013-08-10 19:08:00,
2013-08-10 15:13:00,89.2,75.5,30.07,South,177,1.2,2.3,64,0.00,BKN,,0.77,WeatherDisplay:10.37,2013-08-10 19:13:00,
2013-08-10 15:18:00,89.8,75.5,30.06,WSW,245,2.2,2.3,63,0.00,BKN,,0.77,WeatherDisplay:10.37,2013-08-10 19:18:00,
2013-08-10 15:23:00,90.1,74.9,30.06,NW,312,2.9,3.5,61,0.00,BKN,,0.77,WeatherDisplay:10.37,2013-08-10 19:23:00,
2013-08-10 15:28:00,90.0,74.7,30.06,West,267,4.6,4.6,61,0.00,BKN,,0.77,WeatherDisplay:10.37,2013-08-10 19:28:00,
2013-08-10 15:33:00,90.1,74.4,30.06,NNW,335,0.9,2.3,60,0.00,BKN,,0.77,WeatherDisplay:10.37,2013-08-10 19:33:00,
2013-08-10 15:38:00,90.1,74.9,30.06,SSW,199,3.1,3.5,61,0.00,BKN,,0.77,WeatherDisplay:10.37,2013-08-10 19:38:00,
2013-08-10 15:43:00,90.7,74.4,30.06,NW,312,5.8,9.2,59,0.00,BKN,,0.77,WeatherDisplay:10.37,2013-08-10 19:43:00,
2013-08-10 15:48:00,90.0,73.2,30.06,West,267,0.9,1.1,58,0.00,BKN,,0.77,WeatherDisplay:10.37,2013-08-10 19:48:00,
2013-08-10 15:53:00,89.8,73.5,30.05,West,267,0.0,0.0,59,0.00,BKN,,0.77,WeatherDisplay:10.37,2013-08-10 19:53:00,
2013-08-10 15:58:00,90.0,74.2,30.06,WSW,245,0.7,2.3,60,0.00,BKN,,0.77,WeatherDisplay:10.37,2013-08-10 19:58:00,
2013-08-10 16:03:00,90.0,74.7,30.05,SW,222,3.8,3.8,61,0.00,BKN,,0.77,WeatherDisplay:10.37,2013-08-10 20:03:00,
2013-08-10 16:08:00,90.0,73.7,30.06,NW,312,5.5,6.9,59,0.00,OVC,,0.77,WeatherDisplay:10.37,2013-08-10 20:08:00,
2013-08-10 16:13:00,89.4,73.2,30.06,WNW,289,0.3,2.3,59,0.00,OVC,,0.77,WeatherDisplay:10.37,2013-08-10 20:13:00,
2013-08-10 16:18:00,89.1,73.4,30.05,West,267,3.8,3.8,60,0.00,OVC,,0.77,WeatherDisplay:10.37,2013-08-10 20:18:00,
2013-08-10 16:23:00,88.9,73.7,30.05,West,267,0.0,0.0,61,0.00,OVC,,0.77,WeatherDisplay:10.37,2013-08-10 20:23:00,
2013-08-10 16:28:00,88.5,72.9,30.05,West,267,0.0,0.0,60,0.00,OVC,,0.77,WeatherDisplay:10.37,2013-08-10 20:28:00,
2013-08-10 16:33:00,88.0,71.9,30.05,WSW,245,0.0,0.0,59,0.00,OVC,,0.77,WeatherDisplay:10.37,2013-08-10 20:33:00,
2013-08-10 16:38:00,87.3,71.2,30.05,NW,312,2.4,2.9,59,0.00,OVC,,0.77,WeatherDisplay:10.37,2013-08-10 20:38:00,
2013-08-10 16:43:00,86.7,71.2,30.05,WNW,289,0.9,1.1,60,0.00,OVC,,0.77,WeatherDisplay:10.37,2013-08-10 20:43:00,
2013-08-10 16:48:00,86.4,71.3,30.05,West,267,1.3,1.3,61,0.00,OVC,,0.77,WeatherDisplay:10.37,2013-08-10 20:48:00,
2013-08-10 16:53:00,86.4,71.3,30.04,West,267,2.0,2.3,61,0.00,OVC,,0.77,WeatherDisplay:10.37,2013-08-10 20:53:00,
2013-08-10 16:58:00,86.5,71.5,30.04,West,267,4.7,4.7,61,0.00,OVC,,0.77,WeatherDisplay:10.37,2013-08-10 20:58:00,
2013-08-10 17:03:00,86.7,71.2,30.04,West,267,1.8,2.3,60,0.00,OVC,,0.77,WeatherDisplay:10.37,2013-08-10 21:03:00,
2013-08-10 17:08:00,87.1,72.5,30.04,WSW,245,6.1,8.1,62,0.00,OVC,,0.77,WeatherDisplay:10.37,2013-08-10 21:08:00,
2013-08-10 17:13:00,87.6,72.0,30.03,NW,312,3.1,4.6,60,0.00,OVC,,0.77,WeatherDisplay:10.37,2013-08-10 21:13:00,
2013-08-10 17:18:00,87.4,71.3,30.04,SSW,199,1.1,1.1,59,0.00,OVC,,0.77,WeatherDisplay:10.37,2013-08-10 21:18:00,
2013-08-10 17:23:00,86.7,70.7,30.03,South,177,0.0,0.0,59,0.00,OVC,,0.77,WeatherDisplay:10.37,2013-08-10 21:23:00,
2013-08-10 17:28:00,86.5,71.0,30.04,West,267,2.3,3.5,60,0.00,OVC,,0.77,WeatherDisplay:10.37,2013-08-10 21:28:00,
2013-08-10 17:33:00,85.8,70.8,30.03,West,267,1.8,2.3,61,0.00,OVC,,0.77,WeatherDisplay:10.37,2013-08-10 21:33:00,
2013-08-10 17:38:00,85.8,71.3,30.04,WNW,289,0.7,1.1,62,0.00,OVC,,0.77,WeatherDisplay:10.37,2013-08-10 21:38:00,
2013-08-10 17:43:00,86.0,71.5,30.03,NNW,335,0.0,0.0,62,0.00,OVC,,0.77,WeatherDisplay:10.37,2013-08-10 21:43:00,
2013-08-10 17:44:00,86.0,71.5,30.03,North,357,0.0,1.1,62,0.00,OVC,,0.77,WeatherDisplay:10.37,2013-08-10 21:44:00,
2013-08-10 17:49:00,86.7,72.1,30.04,WSW,245,0.7,1.1,62,0.00,OVC,,0.77,WeatherDisplay:10.37,2013-08-10 21:49:00,
2013-08-10 17:54:00,86.9,71.3,30.04,WNW,289,2.5,2.5,60,0.00,OVC,,0.77,WeatherDisplay:10.37,2013-08-10 21:54:00,
2013-08-10 17:59:00,87.1,71.5,30.04,SSW,199,0.9,1.1,60,0.00,OVC,,0.77,WeatherDisplay:10.37,2013-08-10 21:59:00,
2013-08-10 18:04:00,86.9,71.3,30.03,West,267,0.7,1.1,60,0.00,OVC,,0.77,WeatherDisplay:10.37,2013-08-10 22:04:00,
2013-08-10 18:09:00,86.5,71.0,30.03,NNW,335,0.9,1.1,60,0.00,BKN,,0.77,WeatherDisplay:10.37,2013-08-10 22:09:00,
2013-08-10 18:14:00,85.8,70.8,30.04,WNW,289,1.7,2.3,61,0.00,BKN,,0.77,WeatherDisplay:10.37,2013-08-10 22:14:00,
2013-08-10 18:19:00,84.7,70.3,30.04,NW,312,1.4,2.3,62,0.00,BKN,,0.77,WeatherDisplay:10.37,2013-08-10 22:19:00,
2013-08-10 18:24:00,84.0,70.1,30.04,West,267,0.0,1.1,63,0.00,BKN,,0.77,WeatherDisplay:10.37,2013-08-10 22:24:00,
2013-08-10 18:29:00,83.1,69.7,30.04,NW,312,0.1,2.3,64,0.00,BKN,,0.77,WeatherDisplay:10.37,2013-08-10 22:29:00,
2013-08-10 18:34:00,82.8,70.2,30.04,West,267,0.0,0.0,66,0.00,BKN,,0.77,WeatherDisplay:10.37,2013-08-10 22:34:00,
2013-08-10 18:39:00,82.6,70.1,30.04,NW,312,0.0,0.0,66,0.00,BKN,,0.77,WeatherDisplay:10.37,2013-08-10 22:39:00,
2013-08-10 18:44:00,82.2,70.6,30.04,WNW,289,0.0,0.0,68,0.00,BKN,,0.77,WeatherDisplay:10.37,2013-08-10 22:44:00,
2013-08-10 18:49:00,82.0,70.4,30.04,NW,312,0.0,0.0,68,0.00,BKN,,0.77,WeatherDisplay:10.37,2013-08-10 22:49:00,
2013-08-10 18:54:00,82.0,70.9,30.04,WNW,289,2.2,2.3,69,0.00,BKN,,0.77,WeatherDisplay:10.37,2013-08-10 22:54:00,
2013-08-10 18:59:00,81.7,70.5,30.04,NNW,335,0.1,0.0,69,0.00,BKN,,0.77,WeatherDisplay:10.37,2013-08-10 22:59:00,
2013-08-10 19:04:00,81.7,70.5,30.04,NNW,335,0.9,1.1,69,0.00,BKN,,0.77,WeatherDisplay:10.37,2013-08-10 23:04:00,
2013-08-10 19:09:00,81.5,70.8,30.05,NNW,335,0.0,0.0,70,0.00,BKN,,0.77,WeatherDisplay:10.37,2013-08-10 23:09:00,
2013-08-10 19:14:00,81.3,70.6,30.05,West,267,0.0,0.0,70,0.00,BKN,,0.77,WeatherDisplay:10.37,2013-08-10 23:14:00,
2013-08-10 19:19:00,81.3,71.0,30.05,NW,312,0.3,0.9,71,0.00,BKN,,0.77,WeatherDisplay:10.37,2013-08-10 23:19:00,
2013-08-10 19:24:00,81.1,70.8,30.05,NNW,335,0.0,0.0,71,0.00,BKN,,0.77,WeatherDisplay:10.37,2013-08-10 23:24:00,
2013-08-10 19:29:00,81.0,70.7,30.05,NW,312,0.0,0.0,71,0.00,BKN,,0.77,WeatherDisplay:10.37,2013-08-10 23:29:00,
2013-08-10 19:34:00,80.6,70.7,30.05,North,357,0.0,0.0,72,0.00,BKN,,0.77,WeatherDisplay:10.37,2013-08-10 23:34:00,
2013-08-10 22:57:00,75.4,69.1,30.07,WSW,245,0.0,1.1,81,0.00,BKN,,0.77,WeatherDisplay:10.37,2013-08-11 02:57:00,
2013-08-10 23:02:00,75.0,69.1,30.08,WSW,245,0.0,0.0,82,0.00,BKN,,0.77,WeatherDisplay:10.37,2013-08-11 03:02:00,
2013-08-10 23:07:00,74.8,69.3,30.08,WSW,245,0.0,0.0,83,0.00,BKN,,0.77,WeatherDisplay:10.37,2013-08-11 03:07:00,
2013-08-10 23:12:00,74.7,68.8,30.08,WSW,245,0.0,0.0,82,0.00,SCT,,0.77,WeatherDisplay:10.37,2013-08-11 03:12:00,
2013-08-10 23:17:00,74.5,68.6,30.08,SW,222,0.0,0.0,82,0.00,SCT,,0.77,WeatherDisplay:10.37,2013-08-11 03:17:00,
2013-08-10 23:22:00,74.3,68.8,30.08,SSW,199,0.0,0.0,83,0.00,SCT,,0.77,WeatherDisplay:10.37,2013-08-11 03:22:00,
2013-08-10 23:27:00,74.1,69.0,30.07,WSW,245,0.0,0.0,84,0.00,SCT,,0.77,WeatherDisplay:10.37,2013-08-11 03:27:00,
2013-08-10 23:33:00,74.1,69.0,30.07,WSW,245,0.0,0.0,84,0.00,SCT,,0.77,WeatherDisplay:10.37,2013-08-11 03:33:00,
2013-08-10 23:38:00,73.9,68.4,30.07,SW,222,0.0,0.0,83,0.00,SCT,,0.77,WeatherDisplay:10.37,2013-08-11 03:38:00,
2013-08-10 23:43:00,73.9,68.4,30.07,South,177,0.0,0.0,83,0.00,SCT,,0.77,WeatherDisplay:10.37,2013-08-11 03:43:00,
2013-08-10 23:48:00,73.9,68.4,30.08,WSW,245,0.0,0.0,83,0.00,SCT,,0.77,WeatherDisplay:10.37,2013-08-11 03:48:00,
2013-08-10 23:53:00,73.9,68.8,30.08,WSW,245,0.0,0.0,84,0.00,SCT,,0.77,WeatherDisplay:10.37,2013-08-11 03:53:00,
2013-08-10 23:59:00,73.9,68.8,30.08,WSW,245,0.0,0.0,84,0.00,SCT,,0.77,WeatherDisplay:10.37,2013-08-11 03:59:00,